Flight Track Log - Related Links

Times and Time Zones

All times are in EDT time to prevent confusion due to time zone crossing. See the N745VJ flight status page for this flight to view local times or setup timezone preferences in your user account.

Time Position Orientation Groundspeed Altitude Reporting Facility
EDT Latitude Longitude Course Direction KTS MPH feet Rate Location/Type
Fri 06:37:20 PM 35.1908 -80.9356 72° East 165 190 1,600  Level Atlanta Center
Fri 06:38:46 PM 35.1122 -80.8853 152° Southeast 273 314 4,800 2,553 Climbing Atlanta Center
Fri 06:39:00 PM 35.1318 -80.6122 29° Northeast  Level FlightAware Approximate
Fri 06:39:41 PM 35.0936 -80.8072 106° East 269 310 7,600  Level Atlanta Center
Fri 06:40:00 PM 35.2345 -80.5420 30° Northeast  Level FlightAware Approximate
Fri 06:40:41 PM 35.1078 -80.7078 80° East 287 330 8,000  Level Atlanta Center
Fri 06:41:00 PM 35.3256 -80.4667 North  Level FlightAware Approximate
Fri 06:41:41 PM 35.1347 -80.6281 68° East 289 333 10,100  Level Atlanta Center
Fri 06:42:00 PM 35.3672 -80.3385 72° East  Level FlightAware Approximate
Fri 06:42:41 PM 35.1906 -80.5417 52° Northeast 317 365 12,100  Level Atlanta Center
Fri 06:43:41 PM 35.2525 -80.4450 52° Northeast 348 400 14,400 2,107 Climbing Atlanta Center
Fri 06:46:06 PM 35.4061 -80.1917 53° Northeast 403 464 19,300 2,010 Climbing Washington Center
Fri 06:47:07 PM 35.4594 -80.0494 65° Northeast 408 470 21,300 1,934 Climbing Washington Center
Fri 06:48:07 PM 35.4942 -79.9033 74° East 421 484 23,200 1,831 Climbing Washington Center
Fri 06:49:05 PM 35.5328 -79.7550 72° East 437 503 24,900 1,729 Climbing Washington Center
Fri 06:50:05 PM 35.5714 -79.6011 73° East 456 525 26,600 1,587 Climbing Washington Center
Fri 06:51:06 PM 35.6119 -79.4447 72° East 474 545 28,100 1,240 Climbing Washington Center
Fri 06:52:06 PM 35.6689 -79.2992 64° Northeast 474 545 29,100 1,190 Climbing Washington Center
Fri 06:53:07 PM 35.7278 -79.1486 64° Northeast 479 551 30,500 1,488 Climbing Washington Center
Fri 06:54:07 PM 35.7906 -78.9950 63° Northeast 484 557 32,100 1,627 Climbing Washington Center
Fri 06:55:05 PM 35.8772 -78.8808 47° Northeast 464 534 33,700 1,576 Climbing Washington Center
Fri 06:56:05 PM 35.9756 -78.7900 37° Northeast 446 513 35,200 1,339 Climbing Washington Center
Fri 06:57:06 PM 36.0739 -78.7042 35° Northeast 440 506 36,400 885 Climbing Washington Center
Fri 06:58:07 PM 36.1681 -78.6125 38° Northeast 429 494 37,000 298 Climbing Washington Center
Fri 06:59:07 PM 36.2600 -78.5261 37° Northeast 419 482 37,000  Level Washington Center
Fri 07:00:05 PM 36.3558 -78.4394 36° Northeast 419 482 37,000  Level Washington Center
Fri 07:01:06 PM 36.4519 -78.3497 37° Northeast 419 482 37,000  Level Washington Center
Fri 07:02:07 PM 36.5458 -78.2600 38° Northeast 419 482 37,000  Level Washington Center
Fri 07:03:05 PM 36.6417 -78.1728 36° Northeast 419 482 37,000  Level Washington Center
Fri 07:04:06 PM 36.7311 -78.0850 38° Northeast 414 476 37,000  Level Washington Center
Fri 07:05:07 PM 36.8247 -77.9972 37° Northeast 414 476 37,000  Level Washington Center
Fri 07:06:05 PM 36.9183 -77.9039 39° Northeast 419 482 37,000  Level Washington Center
Fri 07:07:05 PM 37.0117 -77.8158 37° Northeast 419 482 37,000  Level Washington Center
Fri 07:08:06 PM 37.1072 -77.7275 36° Northeast 419 482 37,000  Level Washington Center
Fri 07:09:07 PM 37.2028 -77.6361 37° Northeast 419 482 37,000  Level Washington Center
Fri 07:10:05 PM 37.2981 -77.5447 37° Northeast 419 482 37,000  Level Washington Center
Fri 07:11:06 PM 37.3933 -77.4531 37° Northeast 419 482 37,000  Level Washington Center
Fri 07:12:06 PM 37.4908 -77.3586 38° Northeast 424 488 37,000  Level Washington Center
Fri 07:13:05 PM 37.5881 -77.2639 38° Northeast 429 494 37,000  Level Washington Center
Fri 07:14:05 PM 37.6853 -77.1689 38° Northeast 429 494 37,000  Level Washington Center
Fri 07:15:06 PM 37.7825 -77.0736 38° Northeast 429 494 37,000  Level Washington Center
Fri 07:16:07 PM 37.8775 -76.9808 38° Northeast 434 499 37,000  Level Washington Center
Fri 07:17:05 PM 37.9744 -76.8853 38° Northeast 434 499 37,000  Level Washington Center
Fri 07:18:06 PM 38.0692 -76.7892 39° Northeast 434 499 37,000  Level Washington Center
Fri 07:19:07 PM 38.1661 -76.6931 38° Northeast 434 499 37,000  Level Washington Center
Fri 07:20:07 PM 38.2628 -76.5967 38° Northeast 440 506 37,000  Level Washington Center
Fri 07:21:06 PM 38.3553 -76.5053 38° Northeast 433 498 37,000  Level Washington Center
Fri 07:22:06 PM 38.4519 -76.4108 37° Northeast 433 498 37,000  Level Washington Center
Fri 07:23:07 PM 38.5464 -76.3164 38° Northeast 433 498 37,000  Level Washington Center
Fri 07:24:05 PM 38.6428 -76.2164 39° Northeast 438 504 37,000 -50 Level Washington Center
Fri 07:25:06 PM 38.7453 -76.1186 37° Northeast 443 510 36,900 -50 Descending Washington Center
Fri 07:26:06 PM 38.8397 -76.0208 39° Northeast 443 510 36,900 50 Level Washington Center
Fri 07:27:06 PM 38.9378 -75.9253 37° Northeast 443 510 37,000 50 Climbing Washington Center
Fri 07:28:07 PM 39.0361 -75.8242 39° Northeast 443 510 37,000 -50 Level Washington Center
Fri 07:29:07 PM 39.1322 -75.7228 39° Northeast 443 510 36,900 -51 Descending Washington Center
Fri 07:30:05 PM 39.2322 -75.6236 38° Northeast 443 510 36,900 50 Level Washington Center
Fri 07:31:06 PM 39.3281 -75.5217 39° Northeast 443 510 37,000 49 Climbing Washington Center
Fri 07:32:07 PM 39.4258 -75.4197 39° Northeast 443 510 37,000  Level Washington Center
Fri 07:33:05 PM 39.5236 -75.3172 39° Northeast 443 510 37,000 -50 Level Washington Center
Fri 07:34:06 PM 39.6214 -75.2169 38° Northeast 443 510 36,900  Descending Washington Center
Fri 07:36:04 PM 39.8056 -75.0189 40° Northeast 441 507 37,000 34 Climbing New York Center
Fri 07:37:04 PM 39.9031 -74.9192 38° Northeast 446 513 37,000 50 Level New York Center
Fri 07:38:05 PM 40.0036 -74.7842 46° Northeast 446 513 37,100  Climbing New York Center
Fri 07:39:05 PM 40.0911 -74.6589 48° Northeast 462 532 37,000 -50 Descending New York Center
Fri 07:40:06 PM 40.1767 -74.5333 48° Northeast 462 532 37,000  Level New York Center
Fri 07:41:06 PM 40.2697 -74.4214 43° Northeast 457 526 37,000  Level New York Center
Fri 07:42:07 PM 40.3686 -74.3178 39° Northeast 447 514 37,000  Level New York Center
Fri 07:43:52 PM 40.5414 -74.1306 39° Northeast 450 518 37,000  Level Boston Center
Fri 07:44:52 PM 40.6408 -74.0236 39° Northeast 455 524 37,000  Level Boston Center
Fri 07:45:52 PM 40.7317 -73.9300 38° Northeast 455 524 37,000  Level Boston Center
Fri 07:46:52 PM 40.8272 -73.7950 47° Northeast 455 524 37,000  Level Boston Center
Fri 07:47:52 PM 40.8975 -73.6456 58° Northeast 463 533 37,000 -400 Level Boston Center
Fri 07:48:52 PM 40.9700 -73.5011 56° Northeast 468 539 36,200 -950 Descending Boston Center
Fri 07:49:52 PM 41.0461 -73.3619 54° Northeast 468 539 35,100 -1,000 Descending Boston Center
Fri 07:50:52 PM 41.1075 -73.2333 58° Northeast 463 533 34,200 -550 Descending Boston Center
Fri 07:51:52 PM 41.1794 -73.0881 57° Northeast 463 533 34,000 -100 Descending Boston Center
Fri 07:52:52 PM 41.2467 -72.9481 57° Northeast 463 533 34,000  Level Boston Center
Fri 07:53:52 PM 41.3225 -72.7856 58° Northeast 463 533 34,000  Level Boston Center
Fri 07:54:52 PM 41.3894 -72.6367 59° Northeast 463 533 34,000 -450 Level Boston Center
Fri 07:55:52 PM 41.4667 -72.5039 52° Northeast 463 533 33,100 -1,050 Descending Boston Center
Fri 07:56:52 PM 41.5272 -72.3958 53° Northeast 452 520 31,900 -1,050 Descending Boston Center
Fri 07:57:52 PM 41.6125 -72.2514 52° Northeast 447 514 31,000 -450 Descending Boston Center
Fri 07:58:52 PM 41.6892 -72.1119 54° Northeast 457 526 31,000  Level Boston Center
Fri 07:59:52 PM 41.7681 -71.9781 52° Northeast 457 526 31,000  Level Boston Center
Fri 08:00:52 PM 41.8444 -71.8408 53° Northeast 457 526 31,000 -200 Level Boston Center
Fri 08:01:52 PM 41.9186 -71.7036 54° Northeast 457 526 30,600 -950 Descending Boston Center
Fri 08:02:52 PM 42.0011 -71.5656 51° Northeast 462 532 29,100 -1,550 Descending Boston Center
Fri 08:03:52 PM 42.0894 -71.4189 51° Northeast 462 532 27,500 -1,100 Descending Boston Center
Fri 08:04:52 PM 42.1611 -71.2833 54° Northeast 462 532 26,900 -650 Descending Boston Center
Fri 08:05:52 PM 42.2347 -71.1475 54° Northeast 457 526 26,200 -1,100 Descending Boston Center
Fri 08:06:52 PM 42.3061 -71.0197 53° Northeast 452 520 24,700 -1,100 Descending Boston Center
Fri 08:07:52 PM 42.3772 -70.8886 54° Northeast 440 506 24,000 -350 Descending Boston Center
Fri 08:08:52 PM 42.4403 -70.7775 52° Northeast 429 494 24,000 -550 Level Boston Center
Fri 08:09:52 PM 42.5436 -70.7125 25° Northeast 399 459 22,900 -1,500 Descending Boston Center
Fri 08:10:52 PM 42.6636 -70.6500 21° North 399 459 21,000 -1,909 Descending Boston Center
Fri 08:12:04 PM 42.7792 -70.5789 24° Northeast 386 444 18,700 -1,636 Descending Boston Center
Fri 08:13:04 PM 42.8781 -70.5161 25° Northeast 381 438 17,400 -1,700 Descending Boston Center
Fri 08:14:04 PM 42.9689 -70.4625 23° Northeast 373 429 15,300 -2,000 Descending Boston Center
Fri 08:15:04 PM 43.0594 -70.3942 29° Northeast 363 418 13,400 -1,950 Descending Boston Center
Fri 08:16:04 PM 43.1414 -70.3231 32° Northeast 352 405 11,400 -1,400 Descending Boston Center
Fri 08:17:04 PM 43.2147 -70.3347 353° North 304 350 10,600 -1,350 Descending Boston Center
Fri 08:18:04 PM 43.2922 -70.3692 342° North 269 310 8,700 -1,850 Descending Boston Center
Fri 08:19:04 PM 43.3575 -70.3983 342° North 269 310 6,900 -2,000 Descending Boston Center
Fri 08:20:04 PM 43.4353 -70.4358 341° North 269 310 4,700 -2,000 Descending Boston Center
Fri 08:21:04 PM 43.4942 -70.4625 342° North 264 304 2,900 -1,350 Descending Boston Center
Fri 08:22:04 PM 43.5614 -70.4917 343° North 239 275 2,000 -450 Descending Boston Center
Fri 08:23:04 PM 43.6053 -70.5019 350° North 194 223 2,000  Level Boston Center

Login

Don't have an account? Register now (free) for customized features, flight alerts, and more!